sensor_id;sensor_type;location;lat;lon;timestamp;P1;durP1;ratioP1;P2;durP2;ratioP2
36189;SDS011;22232;50.914;13.858;2023-10-13T00:01:57;7.85;;;4.53;;
36189;SDS011;22232;50.914;13.858;2023-10-13T00:04:29;8.48;;;4.82;;
36189;SDS011;22232;50.914;13.858;2023-10-13T00:07:00;7.82;;;4.47;;
36189;SDS011;22232;50.914;13.858;2023-10-13T00:09:29;7.47;;;4.28;;
36189;SDS011;22232;50.914;13.858;2023-10-13T00:12:05;10.30;;;4.40;;
36189;SDS011;22232;50.914;13.858;2023-10-13T00:14:41;9.85;;;4.53;;
36189;SDS011;22232;50.914;13.858;2023-10-13T00:17:09;9.23;;;4.45;;
36189;SDS011;22232;50.914;13.858;2023-10-13T00:19:46;8.32;;;4.45;;
36189;SDS011;22232;50.914;13.858;2023-10-13T00:22:14;7.97;;;4.55;;
36189;SDS011;22232;50.914;13.858;2023-10-13T00:24:47;9.87;;;4.67;;
36189;SDS011;22232;50.914;13.858;2023-10-13T00:27:16;7.28;;;4.45;;
36189;SDS011;22232;50.914;13.858;2023-10-13T00:30:04;7.10;;;4.55;;
36189;SDS011;22232;50.914;13.858;2023-10-13T00:32:47;6.78;;;4.40;;
36189;SDS011;22232;50.914;13.858;2023-10-13T00:35:24;7.78;;;5.05;;
36189;SDS011;22232;50.914;13.858;2023-10-13T00:38:04;9.18;;;4.85;;
36189;SDS011;22232;50.914;13.858;2023-10-13T00:40:44;8.35;;;4.18;;
36189;SDS011;22232;50.914;13.858;2023-10-13T00:43:19;9.13;;;4.65;;
36189;SDS011;22232;50.914;13.858;2023-10-13T00:45:50;6.60;;;4.50;;
36189;SDS011;22232;50.914;13.858;2023-10-13T00:48:27;8.15;;;4.50;;
36189;SDS011;22232;50.914;13.858;2023-10-13T00:51:02;7.50;;;4.18;;
36189;SDS011;22232;50.914;13.858;2023-10-13T00:53:35;8.13;;;4.30;;
36189;SDS011;22232;50.914;13.858;2023-10-13T00:56:11;8.73;;;4.68;;
36189;SDS011;22232;50.914;13.858;2023-10-13T00:58:54;7.57;;;4.15;;
36189;SDS011;22232;50.914;13.858;2023-10-13T01:01:26;9.63;;;4.85;;
36189;SDS011;22232;50.914;13.858;2023-10-13T01:04:00;8.13;;;4.15;;
36189;SDS011;22232;50.914;13.858;2023-10-13T01:06:30;7.75;;;4.30;;
36189;SDS011;22232;50.914;13.858;2023-10-13T01:09:05;6.97;;;3.95;;
36189;SDS011;22232;50.914;13.858;2023-10-13T01:11:40;5.68;;;4.20;;
36189;SDS011;22232;50.914;13.858;2023-10-13T01:14:12;8.45;;;4.40;;
36189;SDS011;22232;50.914;13.858;2023-10-13T01:16:42;6.78;;;4.38;;
36189;SDS011;22232;50.914;13.858;2023-10-13T01:19:14;9.10;;;4.05;;
36189;SDS011;22232;50.914;13.858;2023-10-13T01:21:47;8.30;;;4.60;;
36189;SDS011;22232;50.914;13.858;2023-10-13T01:24:15;6.63;;;3.75;;
36189;SDS011;22232;50.914;13.858;2023-10-13T01:26:46;6.82;;;3.63;;
36189;SDS011;22232;50.914;13.858;2023-10-13T01:29:18;7.75;;;4.43;;
36189;SDS011;22232;50.914;13.858;2023-10-13T01:31:46;8.00;;;4.10;;
36189;SDS011;22232;50.914;13.858;2023-10-13T01:34:15;6.85;;;3.75;;
36189;SDS011;22232;50.914;13.858;2023-10-13T01:39:23;8.10;;;3.92;;
36189;SDS011;22232;50.914;13.858;2023-10-13T01:41:55;5.05;;;3.58;;
36189;SDS011;22232;50.914;13.858;2023-10-13T01:44:24;7.95;;;3.85;;
36189;SDS011;22232;50.914;13.858;2023-10-13T01:47:00;8.48;;;3.75;;
36189;SDS011;22232;50.914;13.858;2023-10-13T01:49:34;6.63;;;3.88;;
36189;SDS011;22232;50.914;13.858;2023-10-13T01:52:15;7.47;;;3.90;;
36189;SDS011;22232;50.914;13.858;2023-10-13T01:54:47;6.10;;;3.67;;
36189;SDS011;22232;50.914;13.858;2023-10-13T01:57:18;10.25;;;3.80;;
36189;SDS011;22232;50.914;13.858;2023-10-13T01:59:46;9.05;;;4.32;;
36189;SDS011;22232;50.914;13.858;2023-10-13T02:02:16;7.85;;;4.07;;
36189;SDS011;22232;50.914;13.858;2023-10-13T02:04:57;8.23;;;4.03;;
36189;SDS011;22232;50.914;13.858;2023-10-13T02:07:29;8.60;;;4.25;;
36189;SDS011;22232;50.914;13.858;2023-10-13T02:09:58;8.90;;;4.57;;
36189;SDS011;22232;50.914;13.858;2023-10-13T02:12:26;7.47;;;4.38;;
36189;SDS011;22232;50.914;13.858;2023-10-13T02:15:04;7.22;;;3.85;;
36189;SDS011;22232;50.914;13.858;2023-10-13T02:17:32;9.13;;;4.28;;
36189;SDS011;22232;50.914;13.858;2023-10-13T02:20:09;5.63;;;3.53;;
36189;SDS011;22232;50.914;13.858;2023-10-13T02:22:42;6.00;;;3.63;;
36189;SDS011;22232;50.914;13.858;2023-10-13T02:25:19;6.93;;;3.65;;
36189;SDS011;22232;50.914;13.858;2023-10-13T02:30:42;7.47;;;4.30;;
36189;SDS011;22232;50.914;13.858;2023-10-13T02:33:16;5.40;;;3.58;;
36189;SDS011;22232;50.914;13.858;2023-10-13T02:35:57;5.90;;;3.70;;
36189;SDS011;22232;50.914;13.858;2023-10-13T02:38:25;6.78;;;3.92;;
36189;SDS011;22232;50.914;13.858;2023-10-13T02:41:01;6.93;;;3.63;;
36189;SDS011;22232;50.914;13.858;2023-10-13T02:43:35;7.88;;;3.55;;
36189;SDS011;22232;50.914;13.858;2023-10-13T02:46:03;6.75;;;3.20;;
36189;SDS011;22232;50.914;13.858;2023-10-13T02:48:32;6.43;;;3.22;;
36189;SDS011;22232;50.914;13.858;2023-10-13T02:51:09;5.82;;;3.38;;
36189;SDS011;22232;50.914;13.858;2023-10-13T02:53:44;6.43;;;3.28;;
36189;SDS011;22232;50.914;13.858;2023-10-13T02:56:16;10.73;;;3.47;;
36189;SDS011;22232;50.914;13.858;2023-10-13T02:58:52;5.35;;;3.28;;
36189;SDS011;22232;50.914;13.858;2023-10-13T03:01:32;6.65;;;3.25;;
36189;SDS011;22232;50.914;13.858;2023-10-13T03:04:03;5.75;;;2.67;;
36189;SDS011;22232;50.914;13.858;2023-10-13T03:06:35;5.13;;;2.90;;
36189;SDS011;22232;50.914;13.858;2023-10-13T03:09:08;4.32;;;3.15;;
36189;SDS011;22232;50.914;13.858;2023-10-13T03:11:46;4.88;;;3.10;;
36189;SDS011;22232;50.914;13.858;2023-10-13T03:14:17;5.40;;;2.78;;
36189;SDS011;22232;50.914;13.858;2023-10-13T03:16:53;5.07;;;3.00;;
36189;SDS011;22232;50.914;13.858;2023-10-13T03:19:22;7.10;;;3.22;;
36189;SDS011;22232;50.914;13.858;2023-10-13T03:22:00;6.63;;;3.30;;
36189;SDS011;22232;50.914;13.858;2023-10-13T03:24:52;3.78;;;2.42;;
36189;SDS011;22232;50.914;13.858;2023-10-13T03:27:20;4.05;;;3.00;;
36189;SDS011;22232;50.914;13.858;2023-10-13T03:29:51;6.45;;;3.13;;
36189;SDS011;22232;50.914;13.858;2023-10-13T03:32:22;6.03;;;2.85;;
36189;SDS011;22232;50.914;13.858;2023-10-13T03:34:54;4.15;;;3.03;;
36189;SDS011;22232;50.914;13.858;2023-10-13T03:40:15;6.70;;;3.30;;
36189;SDS011;22232;50.914;13.858;2023-10-13T03:42:49;4.05;;;2.90;;
36189;SDS011;22232;50.914;13.858;2023-10-13T03:45:36;3.60;;;2.67;;
36189;SDS011;22232;50.914;13.858;2023-10-13T03:48:15;4.10;;;3.10;;
36189;SDS011;22232;50.914;13.858;2023-10-13T03:50:54;5.40;;;3.03;;
36189;SDS011;22232;50.914;13.858;2023-10-13T03:53:38;5.00;;;2.80;;
36189;SDS011;22232;50.914;13.858;2023-10-13T03:56:26;3.22;;;2.45;;
36189;SDS011;22232;50.914;13.858;2023-10-13T03:58:59;6.70;;;3.33;;
36189;SDS011;22232;50.914;13.858;2023-10-13T04:01:33;6.13;;;3.03;;
36189;SDS011;22232;50.914;13.858;2023-10-13T04:04:10;6.45;;;2.88;;
36189;SDS011;22232;50.914;13.858;2023-10-13T04:06:39;4.57;;;2.90;;
36189;SDS011;22232;50.914;13.858;2023-10-13T04:09:16;7.00;;;3.40;;
36189;SDS011;22232;50.914;13.858;2023-10-13T04:12:00;4.07;;;3.17;;
36189;SDS011;22232;50.914;13.858;2023-10-13T04:14:33;5.15;;;2.95;;
36189;SDS011;22232;50.914;13.858;2023-10-13T04:17:20;5.53;;;2.83;;
36189;SDS011;22232;50.914;13.858;2023-10-13T04:19:54;4.82;;;3.10;;
36189;SDS011;22232;50.914;13.858;2023-10-13T04:22:35;4.80;;;3.22;;
36189;SDS011;22232;50.914;13.858;2023-10-13T04:28:04;5.13;;;3.13;;
36189;SDS011;22232;50.914;13.858;2023-10-13T04:30:54;5.45;;;3.10;;
36189;SDS011;22232;50.914;13.858;2023-10-13T04:38:49;3.95;;;3.10;;
36189;SDS011;22232;50.914;13.858;2023-10-13T04:41:42;4.80;;;2.85;;
36189;SDS011;22232;50.914;13.858;2023-10-13T04:44:13;4.47;;;3.30;;
36189;SDS011;22232;50.914;13.858;2023-10-13T04:47:03;2.75;;;2.50;;
36189;SDS011;22232;50.914;13.858;2023-10-13T04:49:31;5.05;;;3.00;;
36189;SDS011;22232;50.914;13.858;2023-10-13T04:52:17;3.95;;;2.80;;
36189;SDS011;22232;50.914;13.858;2023-10-13T04:55:05;5.88;;;3.25;;
36189;SDS011;22232;50.914;13.858;2023-10-13T04:58:08;6.25;;;2.83;;
36189;SDS011;22232;50.914;13.858;2023-10-13T05:00:58;5.13;;;3.00;;
36189;SDS011;22232;50.914;13.858;2023-10-13T05:03:51;3.60;;;2.83;;
36189;SDS011;22232;50.914;13.858;2023-10-13T05:06:37;5.20;;;2.95;;
36189;SDS011;22232;50.914;13.858;2023-10-13T05:11:58;4.57;;;2.75;;
36189;SDS011;22232;50.914;13.858;2023-10-13T05:14:44;5.57;;;2.95;;
36189;SDS011;22232;50.914;13.858;2023-10-13T05:17:32;4.00;;;2.63;;
36189;SDS011;22232;50.914;13.858;2023-10-13T05:20:20;4.43;;;2.78;;
36189;SDS011;22232;50.914;13.858;2023-10-13T05:23:06;3.92;;;2.90;;
36189;SDS011;22232;50.914;13.858;2023-10-13T05:25:53;4.10;;;2.85;;
36189;SDS011;22232;50.914;13.858;2023-10-13T05:28:39;4.25;;;3.00;;
36189;SDS011;22232;50.914;13.858;2023-10-13T05:31:25;4.35;;;2.95;;
36189;SDS011;22232;50.914;13.858;2023-10-13T05:34:11;3.03;;;2.72;;
36189;SDS011;22232;50.914;13.858;2023-10-13T05:36:58;3.80;;;2.67;;
36189;SDS011;22232;50.914;13.858;2023-10-13T05:39:44;3.78;;;2.85;;
36189;SDS011;22232;50.914;13.858;2023-10-13T05:43:19;7.22;;;3.53;;
36189;SDS011;22232;50.914;13.858;2023-10-13T05:46:06;8.27;;;4.82;;
36189;SDS011;22232;50.914;13.858;2023-10-13T05:48:52;14.05;;;7.38;;
36189;SDS011;22232;50.914;13.858;2023-10-13T05:51:27;12.88;;;8.63;;
36189;SDS011;22232;50.914;13.858;2023-10-13T05:56:47;18.35;;;10.80;;
36189;SDS011;22232;50.914;13.858;2023-10-13T05:59:36;19.52;;;12.50;;
36189;SDS011;22232;50.914;13.858;2023-10-13T06:02:23;18.52;;;12.88;;
36189;SDS011;22232;50.914;13.858;2023-10-13T06:05:11;20.60;;;13.00;;
36189;SDS011;22232;50.914;13.858;2023-10-13T06:07:58;20.73;;;13.68;;
36189;SDS011;22232;50.914;13.858;2023-10-13T06:10:44;23.45;;;16.65;;
36189;SDS011;22232;50.914;13.858;2023-10-13T06:13:31;26.45;;;18.33;;
36189;SDS011;22232;50.914;13.858;2023-10-13T06:16:18;31.50;;;19.75;;
36189;SDS011;22232;50.914;13.858;2023-10-13T06:19:04;26.95;;;19.23;;
36189;SDS011;22232;50.914;13.858;2023-10-13T06:21:51;27.85;;;19.05;;
36189;SDS011;22232;50.914;13.858;2023-10-13T06:24:37;25.90;;;18.92;;
36189;SDS011;22232;50.914;13.858;2023-10-13T06:27:24;26.30;;;18.60;;
36189;SDS011;22232;50.914;13.858;2023-10-13T06:30:10;26.02;;;17.92;;
36189;SDS011;22232;50.914;13.858;2023-10-13T06:32:39;25.75;;;18.73;;
36189;SDS011;22232;50.914;13.858;2023-10-13T06:35:07;27.08;;;18.55;;
36189;SDS011;22232;50.914;13.858;2023-10-13T06:37:35;31.17;;;19.10;;
36189;SDS011;22232;50.914;13.858;2023-10-13T06:43:03;29.23;;;18.40;;
36189;SDS011;22232;50.914;13.858;2023-10-13T06:45:44;29.23;;;19.35;;
36189;SDS011;22232;50.914;13.858;2023-10-13T06:48:24;24.27;;;17.23;;
36189;SDS011;22232;50.914;13.858;2023-10-13T06:50:52;24.15;;;16.73;;
36189;SDS011;22232;50.914;13.858;2023-10-13T06:53:22;26.67;;;17.17;;
36189;SDS011;22232;50.914;13.858;2023-10-13T06:55:52;22.23;;;15.60;;
36189;SDS011;22232;50.914;13.858;2023-10-13T06:58:26;23.00;;;16.08;;
36189;SDS011;22232;50.914;13.858;2023-10-13T07:00:53;20.88;;;14.88;;
36189;SDS011;22232;50.914;13.858;2023-10-13T07:03:22;23.35;;;14.65;;
36189;SDS011;22232;50.914;13.858;2023-10-13T07:05:50;17.83;;;13.02;;
36189;SDS011;22232;50.914;13.858;2023-10-13T07:08:19;18.42;;;13.00;;
36189;SDS011;22232;50.914;13.858;2023-10-13T07:10:52;17.70;;;12.45;;
36189;SDS011;22232;50.914;13.858;2023-10-13T07:13:35;17.38;;;11.77;;
36189;SDS011;22232;50.914;13.858;2023-10-13T07:16:05;17.38;;;12.27;;
36189;SDS011;22232;50.914;13.858;2023-10-13T07:18:55;18.73;;;12.55;;
36189;SDS011;22232;50.914;13.858;2023-10-13T07:21:22;15.10;;;11.68;;
36189;SDS011;22232;50.914;13.858;2023-10-13T07:23:59;17.23;;;11.70;;
36189;SDS011;22232;50.914;13.858;2023-10-13T07:26:45;14.23;;;9.30;;
36189;SDS011;22232;50.914;13.858;2023-10-13T07:29:14;13.00;;;9.45;;
36189;SDS011;22232;50.914;13.858;2023-10-13T07:31:42;10.45;;;8.10;;
36189;SDS011;22232;50.914;13.858;2023-10-13T07:34:13;9.82;;;7.82;;
36189;SDS011;22232;50.914;13.858;2023-10-13T07:36:53;11.30;;;7.40;;
36189;SDS011;22232;50.914;13.858;2023-10-13T07:39:22;10.20;;;6.85;;
36189;SDS011;22232;50.914;13.858;2023-10-13T07:41:53;7.85;;;6.00;;
36189;SDS011;22232;50.914;13.858;2023-10-13T07:44:31;7.95;;;6.20;;
36189;SDS011;22232;50.914;13.858;2023-10-13T07:47:01;8.82;;;5.95;;
36189;SDS011;22232;50.914;13.858;2023-10-13T07:49:32;8.18;;;5.20;;
36189;SDS011;22232;50.914;13.858;2023-10-13T07:52:10;5.82;;;4.70;;
36189;SDS011;22232;50.914;13.858;2023-10-13T07:54:49;4.80;;;4.30;;
36189;SDS011;22232;50.914;13.858;2023-10-13T07:57:37;5.18;;;4.03;;
36189;SDS011;22232;50.914;13.858;2023-10-13T08:00:21;5.82;;;4.22;;
36189;SDS011;22232;50.914;13.858;2023-10-13T08:03:13;5.20;;;4.38;;
36189;SDS011;22232;50.914;13.858;2023-10-13T08:05:44;5.30;;;4.18;;
36189;SDS011;22232;50.914;13.858;2023-10-13T08:08:48;7.90;;;4.82;;
36189;SDS011;22232;50.914;13.858;2023-10-13T08:11:21;5.53;;;4.25;;
36189;SDS011;22232;50.914;13.858;2023-10-13T08:13:52;5.80;;;4.10;;
36189;SDS011;22232;50.914;13.858;2023-10-13T08:16:39;6.25;;;4.15;;
36189;SDS011;22232;50.914;13.858;2023-10-13T08:19:27;7.57;;;4.90;;
36189;SDS011;22232;50.914;13.858;2023-10-13T08:21:55;10.63;;;5.18;;
36189;SDS011;22232;50.914;13.858;2023-10-13T08:24:48;10.38;;;5.03;;
36189;SDS011;22232;50.914;13.858;2023-10-13T08:27:18;7.45;;;5.15;;
36189;SDS011;22232;50.914;13.858;2023-10-13T08:30:03;6.95;;;5.55;;
36189;SDS011;22232;50.914;13.858;2023-10-13T08:33:04;8.10;;;5.95;;
36189;SDS011;22232;50.914;13.858;2023-10-13T08:35:44;10.68;;;6.88;;
36189;SDS011;22232;50.914;13.858;2023-10-13T08:38:32;10.15;;;6.18;;
36189;SDS011;22232;50.914;13.858;2023-10-13T08:41:18;7.22;;;6.13;;
36189;SDS011;22232;50.914;13.858;2023-10-13T08:43:46;10.23;;;6.97;;
36189;SDS011;22232;50.914;13.858;2023-10-13T08:46:21;9.63;;;6.35;;
36189;SDS011;22232;50.914;13.858;2023-10-13T08:49:14;13.40;;;8.60;;
36189;SDS011;22232;50.914;13.858;2023-10-13T08:51:45;11.13;;;8.38;;
36189;SDS011;22232;50.914;13.858;2023-10-13T08:54:17;10.27;;;7.88;;
36189;SDS011;22232;50.914;13.858;2023-10-13T08:57:06;11.65;;;8.32;;
36189;SDS011;22232;50.914;13.858;2023-10-13T08:59:47;12.65;;;9.10;;
36189;SDS011;22232;50.914;13.858;2023-10-13T09:02:22;14.98;;;9.77;;
36189;SDS011;22232;50.914;13.858;2023-10-13T09:05:09;11.50;;;9.55;;
36189;SDS011;22232;50.914;13.858;2023-10-13T09:07:57;14.32;;;9.60;;
36189;SDS011;22232;50.914;13.858;2023-10-13T09:10:36;14.30;;;10.27;;
36189;SDS011;22232;50.914;13.858;2023-10-13T09:13:36;14.98;;;10.73;;
36189;SDS011;22232;50.914;13.858;2023-10-13T09:16:13;16.83;;;11.00;;
36189;SDS011;22232;50.914;13.858;2023-10-13T09:19:10;13.65;;;10.93;;
36189;SDS011;22232;50.914;13.858;2023-10-13T09:21:39;15.57;;;10.40;;
36189;SDS011;22232;50.914;13.858;2023-10-13T09:24:08;14.10;;;11.30;;
36189;SDS011;22232;50.914;13.858;2023-10-13T09:26:50;17.20;;;11.30;;
36189;SDS011;22232;50.914;13.858;2023-10-13T09:29:23;16.60;;;12.07;;
36189;SDS011;22232;50.914;13.858;2023-10-13T09:31:59;15.95;;;10.60;;
36189;SDS011;22232;50.914;13.858;2023-10-13T09:34:30;15.20;;;10.40;;
36189;SDS011;22232;50.914;13.858;2023-10-13T09:37:02;15.75;;;11.93;;
36189;SDS011;22232;50.914;13.858;2023-10-13T09:39:31;16.67;;;12.63;;
36189;SDS011;22232;50.914;13.858;2023-10-13T09:42:22;18.48;;;13.52;;
36189;SDS011;22232;50.914;13.858;2023-10-13T09:44:53;17.63;;;13.85;;
36189;SDS011;22232;50.914;13.858;2023-10-13T09:47:26;20.77;;;14.73;;
36189;SDS011;22232;50.914;13.858;2023-10-13T09:50:05;21.40;;;16.10;;
36189;SDS011;22232;50.914;13.858;2023-10-13T09:52:42;22.40;;;17.48;;
36189;SDS011;22232;50.914;13.858;2023-10-13T09:55:13;21.13;;;17.13;;
36189;SDS011;22232;50.914;13.858;2023-10-13T09:57:53;23.05;;;17.02;;
36189;SDS011;22232;50.914;13.858;2023-10-13T10:00:48;22.08;;;17.55;;
36189;SDS011;22232;50.914;13.858;2023-10-13T10:03:26;21.92;;;18.13;;
36189;SDS011;22232;50.914;13.858;2023-10-13T10:05:58;21.35;;;16.77;;
36189;SDS011;22232;50.914;13.858;2023-10-13T10:08:31;23.80;;;17.75;;
36189;SDS011;22232;50.914;13.858;2023-10-13T10:11:19;23.20;;;17.02;;
36189;SDS011;22232;50.914;13.858;2023-10-13T10:16:39;18.33;;;13.75;;
36189;SDS011;22232;50.914;13.858;2023-10-13T10:19:16;17.02;;;11.95;;
36189;SDS011;22232;50.914;13.858;2023-10-13T10:21:46;11.30;;;8.02;;
36189;SDS011;22232;50.914;13.858;2023-10-13T10:24:24;11.43;;;7.40;;
36189;SDS011;22232;50.914;13.858;2023-10-13T10:26:59;10.00;;;6.57;;
36189;SDS011;22232;50.914;13.858;2023-10-13T10:29:26;9.88;;;5.88;;
36189;SDS011;22232;50.914;13.858;2023-10-13T10:31:54;11.85;;;6.22;;
36189;SDS011;22232;50.914;13.858;2023-10-13T10:34:21;11.70;;;5.68;;
36189;SDS011;22232;50.914;13.858;2023-10-13T10:37:00;10.30;;;5.07;;
36189;SDS011;22232;50.914;13.858;2023-10-13T10:39:35;7.60;;;5.13;;
36189;SDS011;22232;50.914;13.858;2023-10-13T10:42:17;11.60;;;6.32;;
36189;SDS011;22232;50.914;13.858;2023-10-13T10:47:22;7.72;;;4.88;;
36189;SDS011;22232;50.914;13.858;2023-10-13T10:50:04;10.23;;;5.20;;
36189;SDS011;22232;50.914;13.858;2023-10-13T10:52:36;9.13;;;5.32;;
36189;SDS011;22232;50.914;13.858;2023-10-13T10:55:07;10.02;;;5.22;;
36189;SDS011;22232;50.914;13.858;2023-10-13T10:57:34;9.73;;;4.78;;
36189;SDS011;22232;50.914;13.858;2023-10-13T11:00:05;15.65;;;4.97;;
36189;SDS011;22232;50.914;13.858;2023-10-13T11:02:38;14.70;;;4.00;;
36189;SDS011;22232;50.914;13.858;2023-10-13T11:05:07;9.88;;;3.83;;
36189;SDS011;22232;50.914;13.858;2023-10-13T11:07:44;11.52;;;4.43;;
36189;SDS011;22232;50.914;13.858;2023-10-13T11:10:17;9.18;;;3.90;;
36189;SDS011;22232;50.914;13.858;2023-10-13T11:12:55;12.65;;;4.47;;
36189;SDS011;22232;50.914;13.858;2023-10-13T11:15:23;8.63;;;4.78;;
36189;SDS011;22232;50.914;13.858;2023-10-13T11:18:00;11.73;;;4.82;;
36189;SDS011;22232;50.914;13.858;2023-10-13T11:20:33;12.50;;;5.43;;
36189;SDS011;22232;50.914;13.858;2023-10-13T11:23:12;16.92;;;5.50;;
36189;SDS011;22232;50.914;13.858;2023-10-13T11:25:41;13.20;;;5.10;;
36189;SDS011;22232;50.914;13.858;2023-10-13T11:28:15;16.73;;;4.80;;
36189;SDS011;22232;50.914;13.858;2023-10-13T11:30:48;12.68;;;4.30;;
36189;SDS011;22232;50.914;13.858;2023-10-13T11:33:18;10.85;;;4.40;;
36189;SDS011;22232;50.914;13.858;2023-10-13T11:35:53;14.48;;;4.15;;
36189;SDS011;22232;50.914;13.858;2023-10-13T11:38:26;17.20;;;4.63;;
36189;SDS011;22232;50.914;13.858;2023-10-13T11:40:59;13.75;;;7.82;;
36189;SDS011;22232;50.914;13.858;2023-10-13T11:46:32;15.60;;;9.70;;
36189;SDS011;22232;50.914;13.858;2023-10-13T11:49:07;14.98;;;9.70;;
36189;SDS011;22232;50.914;13.858;2023-10-13T11:51:43;16.98;;;10.45;;
36189;SDS011;22232;50.914;13.858;2023-10-13T11:54:15;16.08;;;9.52;;
36189;SDS011;22232;50.914;13.858;2023-10-13T11:56:45;14.75;;;9.65;;
36189;SDS011;22232;50.914;13.858;2023-10-13T11:59:14;18.38;;;9.95;;
36189;SDS011;22232;50.914;13.858;2023-10-13T12:01:48;15.93;;;9.10;;
36189;SDS011;22232;50.914;13.858;2023-10-13T12:04:37;17.13;;;7.68;;
36189;SDS011;22232;50.914;13.858;2023-10-13T12:07:11;13.05;;;7.13;;
36189;SDS011;22232;50.914;13.858;2023-10-13T12:09:48;18.65;;;8.75;;
36189;SDS011;22232;50.914;13.858;2023-10-13T12:12:23;15.25;;;8.68;;
36189;SDS011;22232;50.914;13.858;2023-10-13T12:14:51;17.67;;;8.70;;
36189;SDS011;22232;50.914;13.858;2023-10-13T12:17:24;15.77;;;8.65;;
36189;SDS011;22232;50.914;13.858;2023-10-13T12:19:55;15.50;;;7.97;;
36189;SDS011;22232;50.914;13.858;2023-10-13T12:22:24;18.38;;;8.10;;
36189;SDS011;22232;50.914;13.858;2023-10-13T12:24:56;12.48;;;7.40;;
36189;SDS011;22232;50.914;13.858;2023-10-13T12:27:23;15.02;;;7.55;;
36189;SDS011;22232;50.914;13.858;2023-10-13T12:29:54;20.75;;;7.80;;
36189;SDS011;22232;50.914;13.858;2023-10-13T12:32:23;16.02;;;7.60;;
36189;SDS011;22232;50.914;13.858;2023-10-13T12:34:58;16.98;;;7.13;;
36189;SDS011;22232;50.914;13.858;2023-10-13T12:37:32;15.00;;;6.88;;
36189;SDS011;22232;50.914;13.858;2023-10-13T12:40:10;16.50;;;7.35;;
36189;SDS011;22232;50.914;13.858;2023-10-13T12:42:59;16.83;;;6.95;;
36189;SDS011;22232;50.914;13.858;2023-10-13T12:45:46;13.93;;;6.93;;
36189;SDS011;22232;50.914;13.858;2023-10-13T12:48:34;16.13;;;7.15;;
36189;SDS011;22232;50.914;13.858;2023-10-13T12:51:23;20.05;;;7.25;;
36189;SDS011;22232;50.914;13.858;2023-10-13T12:54:00;10.93;;;6.50;;
36189;SDS011;22232;50.914;13.858;2023-10-13T12:56:43;14.73;;;6.03;;
36189;SDS011;22232;50.914;13.858;2023-10-13T12:59:10;13.18;;;6.35;;
36189;SDS011;22232;50.914;13.858;2023-10-13T13:01:41;10.88;;;5.35;;
36189;SDS011;22232;50.914;13.858;2023-10-13T13:04:12;14.90;;;5.20;;
36189;SDS011;22232;50.914;13.858;2023-10-13T13:06:48;12.05;;;5.20;;
36189;SDS011;22232;50.914;13.858;2023-10-13T13:09:17;13.77;;;5.47;;
36189;SDS011;22232;50.914;13.858;2023-10-13T13:11:54;11.05;;;4.70;;
36189;SDS011;22232;50.914;13.858;2023-10-13T13:14:26;10.75;;;5.63;;
36189;SDS011;22232;50.914;13.858;2023-10-13T13:16:56;10.85;;;4.88;;
36189;SDS011;22232;50.914;13.858;2023-10-13T13:19:35;10.23;;;4.85;;
36189;SDS011;22232;50.914;13.858;2023-10-13T13:22:07;9.77;;;4.15;;
36189;SDS011;22232;50.914;13.858;2023-10-13T13:24:42;13.57;;;5.25;;
36189;SDS011;22232;50.914;13.858;2023-10-13T13:27:12;10.40;;;4.85;;
36189;SDS011;22232;50.914;13.858;2023-10-13T13:29:41;12.95;;;5.10;;
36189;SDS011;22232;50.914;13.858;2023-10-13T13:32:09;12.40;;;5.28;;
36189;SDS011;22232;50.914;13.858;2023-10-13T13:34:45;10.73;;;5.50;;
36189;SDS011;22232;50.914;13.858;2023-10-13T13:37:22;11.57;;;4.90;;
36189;SDS011;22232;50.914;13.858;2023-10-13T13:39:50;14.13;;;4.53;;
36189;SDS011;22232;50.914;13.858;2023-10-13T13:42:20;16.48;;;5.25;;
36189;SDS011;22232;50.914;13.858;2023-10-13T13:44:47;13.32;;;5.00;;
36189;SDS011;22232;50.914;13.858;2023-10-13T13:47:15;9.68;;;4.57;;
36189;SDS011;22232;50.914;13.858;2023-10-13T13:49:44;14.43;;;4.50;;
36189;SDS011;22232;50.914;13.858;2023-10-13T13:52:19;12.52;;;4.90;;
36189;SDS011;22232;50.914;13.858;2023-10-13T13:55:01;11.43;;;4.68;;
36189;SDS011;22232;50.914;13.858;2023-10-13T13:57:32;11.55;;;4.85;;
36189;SDS011;22232;50.914;13.858;2023-10-13T14:00:00;10.82;;;4.53;;
36189;SDS011;22232;50.914;13.858;2023-10-13T14:02:35;14.27;;;5.00;;
36189;SDS011;22232;50.914;13.858;2023-10-13T14:05:03;14.27;;;5.63;;
36189;SDS011;22232;50.914;13.858;2023-10-13T14:07:31;13.27;;;5.57;;
36189;SDS011;22232;50.914;13.858;2023-10-13T14:10:00;15.13;;;5.35;;
36189;SDS011;22232;50.914;13.858;2023-10-13T14:12:34;16.35;;;5.90;;
36189;SDS011;22232;50.914;13.858;2023-10-13T14:15:10;14.52;;;5.32;;
36189;SDS011;22232;50.914;13.858;2023-10-13T14:17:51;17.95;;;6.38;;
36189;SDS011;22232;50.914;13.858;2023-10-13T14:20:18;12.85;;;5.93;;
36189;SDS011;22232;50.914;13.858;2023-10-13T14:22:46;15.50;;;6.53;;
36189;SDS011;22232;50.914;13.858;2023-10-13T14:25:19;13.30;;;5.87;;
36189;SDS011;22232;50.914;13.858;2023-10-13T14:27:51;10.50;;;5.72;;
36189;SDS011;22232;50.914;13.858;2023-10-13T14:30:21;11.52;;;5.53;;
36189;SDS011;22232;50.914;13.858;2023-10-13T14:32:50;10.82;;;5.32;;
36189;SDS011;22232;50.914;13.858;2023-10-13T14:35:18;22.23;;;6.55;;
36189;SDS011;22232;50.914;13.858;2023-10-13T14:37:46;17.33;;;6.47;;
36189;SDS011;22232;50.914;13.858;2023-10-13T14:40:13;10.02;;;5.63;;
36189;SDS011;22232;50.914;13.858;2023-10-13T14:42:43;14.95;;;6.30;;
36189;SDS011;22232;50.914;13.858;2023-10-13T14:45:11;10.27;;;5.90;;
36189;SDS011;22232;50.914;13.858;2023-10-13T14:47:41;12.30;;;5.50;;
36189;SDS011;22232;50.914;13.858;2023-10-13T14:50:12;16.73;;;5.85;;
36189;SDS011;22232;50.914;13.858;2023-10-13T14:52:47;11.85;;;5.78;;
36189;SDS011;22232;50.914;13.858;2023-10-13T14:55:16;13.45;;;5.65;;
36189;SDS011;22232;50.914;13.858;2023-10-13T14:57:48;17.75;;;5.57;;
36189;SDS011;22232;50.914;13.858;2023-10-13T15:00:18;11.82;;;5.72;;
36189;SDS011;22232;50.914;13.858;2023-10-13T15:02:53;9.75;;;5.07;;
36189;SDS011;22232;50.914;13.858;2023-10-13T15:05:22;15.10;;;5.78;;
36189;SDS011;22232;50.914;13.858;2023-10-13T15:07:50;12.43;;;5.43;;
36189;SDS011;22232;50.914;13.858;2023-10-13T15:10:18;9.98;;;5.47;;
36189;SDS011;22232;50.914;13.858;2023-10-13T15:12:46;14.00;;;5.50;;
36189;SDS011;22232;50.914;13.858;2023-10-13T15:15:16;15.52;;;5.50;;
36189;SDS011;22232;50.914;13.858;2023-10-13T15:17:43;14.23;;;5.28;;
36189;SDS011;22232;50.914;13.858;2023-10-13T15:20:11;13.02;;;5.72;;
36189;SDS011;22232;50.914;13.858;2023-10-13T15:22:50;13.82;;;5.35;;
36189;SDS011;22232;50.914;13.858;2023-10-13T15:25:28;15.82;;;5.53;;
36189;SDS011;22232;50.914;13.858;2023-10-13T15:27:57;14.57;;;5.63;;
36189;SDS011;22232;50.914;13.858;2023-10-13T15:30:31;10.13;;;4.78;;
36189;SDS011;22232;50.914;13.858;2023-10-13T15:33:22;10.95;;;5.20;;
36189;SDS011;22232;50.914;13.858;2023-10-13T15:35:52;13.10;;;4.72;;
36189;SDS011;22232;50.914;13.858;2023-10-13T15:38:20;11.73;;;5.30;;
36189;SDS011;22232;50.914;13.858;2023-10-13T15:40:49;11.02;;;5.72;;
36189;SDS011;22232;50.914;13.858;2023-10-13T15:43:22;13.80;;;4.47;;
36189;SDS011;22232;50.914;13.858;2023-10-13T15:45:50;13.73;;;5.13;;
36189;SDS011;22232;50.914;13.858;2023-10-13T15:48:18;16.13;;;5.53;;
36189;SDS011;22232;50.914;13.858;2023-10-13T15:50:52;14.48;;;5.78;;